Time;durP1;ratioP1;P1;durP2;ratioP2;P2;SDS_P1;SDS_P2;PMS_P1;PMS_P2;Temp;Humidity;BMP_temperature;BMP_pressure;BME280_temperature;BME280_humidity;BME280_pressure;Samples;Min_cycle;Max_cycle;Signal;HPM_P1;HPM_P2
2023/03/07 00:02:20;;;;;;;7.25;6.55;;;;;;;3.91;100.00;99830.06;5071240;28;20044;-75
2023/03/07 00:04:47;;;;;;;7.03;5.53;;;;;;;3.90;100.00;99831.22;5071123;28;20045;-75
2023/03/07 00:07:13;;;;;;;9.35;6.28;;;;;;;3.88;100.00;99830.91;5070257;28;20417;-75
2023/03/07 00:09:41;;;;;;;11.30;6.03;;;;;;;3.85;100.00;99837.00;5072030;28;20052;-75
2023/03/07 00:12:08;;;;;;;8.20;4.85;;;;;;;3.83;100.00;99837.41;5071785;28;20072;-75
2023/03/07 00:14:35;;;;;;;9.88;5.57;;;;;;;3.81;100.00;99833.72;5072014;28;20052;-76
2023/03/07 00:17:01;;;;;;;11.82;5.32;;;;;;;3.80;100.00;99832.22;5071161;28;20045;-75
2023/03/07 00:19:28;;;;;;;6.90;5.00;;;;;;;3.78;100.00;99837.16;5071739;28;20612;-75
2023/03/07 00:21:54;;;;;;;6.85;4.88;;;;;;;3.76;100.00;99827.06;5071828;28;20220;-75
2023/03/07 00:24:21;;;;;;;5.95;4.30;;;;;;;3.76;100.00;99836.84;5070947;28;20103;-75
2023/03/07 00:26:47;;;;;;;8.32;4.95;;;;;;;3.74;100.00;99839.16;5071895;28;20068;-76
2023/03/07 00:29:14;;;;;;;7.30;4.65;;;;;;;3.74;100.00;99826.72;5069402;28;20077;-76
2023/03/07 00:31:40;;;;;;;4.63;4.22;;;;;;;3.75;100.00;99833.47;5071570;28;20067;-76
2023/03/07 00:34:07;;;;;;;10.63;4.28;;;;;;;3.76;100.00;99828.94;5070850;28;20053;-76
2023/03/07 00:36:33;;;;;;;9.13;4.43;;;;;;;3.75;100.00;99828.22;5071672;28;20494;-76
2023/03/07 00:39:00;;;;;;;6.60;4.70;;;;;;;3.75;100.00;99819.56;5071652;28;20041;-76
2023/03/07 00:41:27;;;;;;;9.02;4.65;;;;;;;3.74;100.00;99826.72;5071209;28;20060;-76
2023/03/07 00:43:55;;;;;;;6.88;4.45;;;;;;;3.74;100.00;99818.09;5071174;28;20554;-76
2023/03/07 00:46:23;;;;;;;11.25;5.00;;;;;;;3.74;100.00;99821.47;5070969;28;20417;-76
2023/03/07 00:48:49;;;;;;;8.05;4.32;;;;;;;3.73;100.00;99822.63;5071409;28;20041;-76
2023/03/07 00:51:18;;;;;;;9.85;4.65;;;;;;;3.72;100.00;99820.41;5070531;28;20103;-77
2023/03/07 00:53:45;;;;;;;5.50;4.13;;;;;;;3.73;100.00;99821.88;5070018;28;20087;-77
2023/03/07 00:56:17;;;;;;;9.98;5.05;;;;;;;3.73;100.00;99822.63;5069213;28;20049;-76
2023/03/07 00:58:44;;;;;;;7.50;4.68;;;;;;;3.74;100.00;99812.81;5071315;28;20477;-76
2023/03/07 01:01:14;;;;;;;8.90;4.10;;;;;;;3.75;100.00;99815.03;5070640;28;20052;-76
2023/03/07 01:03:42;;;;;;;7.13;3.97;;;;;;;3.76;100.00;99815.78;5053397;28;20100;-77
2023/03/07 01:06:14;;;;;;;8.15;4.28;;;;;;;3.76;100.00;99810.53;5070726;28;20081;-77
2023/03/07 01:08:41;;;;;;;8.05;4.68;;;;;;;3.76;100.00;99813.88;5069666;28;20052;-76
2023/03/07 01:11:10;;;;;;;5.47;4.22;;;;;;;3.77;100.00;99814.63;5069292;28;20068;-77
2023/03/07 01:13:37;;;;;;;8.45;4.53;;;;;;;3.80;100.00;99819.06;5069384;28;20053;-75
2023/03/07 01:16:09;;;;;;;8.25;4.43;;;;;;;3.83;100.00;99826.13;5071636;28;20052;-75
2023/03/07 01:18:37;;;;;;;7.40;4.95;;;;;;;3.84;100.00;99815.19;5073545;28;20516;-75
2023/03/07 01:21:15;;;;;;;8.38;4.07;;;;;;;3.84;100.00;99817.09;5072959;28;20103;-75
2023/03/07 01:23:42;;;;;;;7.95;4.20;;;;;;;3.82;100.00;99811.50;5074856;28;20049;-76
2023/03/07 01:26:20;;;;;;;8.85;4.22;;;;;;;3.80;100.00;99811.91;5072836;28;20078;-76
2023/03/07 01:28:48;;;;;;;6.60;3.95;;;;;;;3.81;100.00;99813.38;5072558;28;20049;-76
2023/03/07 01:31:15;;;;;;;12.07;4.03;;;;;;;3.80;100.00;99805.91;5072539;28;20049;-76
2023/03/07 01:33:41;;;;;;;5.13;3.60;;;;;;;3.79;100.00;99810.44;5072424;28;20499;-76
2023/03/07 01:36:29;;;;;;;7.30;3.35;;;;;;;3.78;100.00;99805.59;5072399;28;20132;-76
2023/03/07 01:39:05;;;;;;;3.40;3.10;;;;;;;3.76;100.00;99810.53;5056617;28;20095;-76
2023/03/07 01:41:36;;;;;;;4.18;3.47;;;;;;;3.78;100.00;99802.94;5072894;28;20096;-77
2023/03/07 01:44:14;;;;;;;3.80;3.22;;;;;;;3.78;100.00;99805.59;5072092;28;20053;-76
2023/03/07 01:46:47;;;;;;;4.40;2.88;;;;;;;3.76;100.00;99798.09;5072748;28;20049;-76
2023/03/07 01:49:19;;;;;;;7.03;3.17;;;;;;;3.76;100.00;99792.09;5072342;28;20061;-76
2023/03/07 01:51:57;;;;;;;8.55;4.30;;;;;;;3.73;100.00;99798.91;5072692;28;20128;-75
2023/03/07 01:54:25;;;;;;;6.05;2.88;;;;;;;3.69;100.00;99793.75;5072198;28;20049;-75
2023/03/07 01:56:53;;;;;;;5.07;2.53;;;;;;;3.66;100.00;99797.19;5072161;28;20544;-76
2023/03/07 01:59:27;;;;;;;5.85;2.83;;;;;;;3.64;100.00;99785.59;5073360;28;20573;-74
2023/03/07 02:01:54;;;;;;;4.90;2.63;;;;;;;3.62;100.00;99787.91;5074109;28;20465;-75
2023/03/07 02:04:33;;;;;;;8.20;2.17;;;;;;;3.60;100.00;99787.59;5071748;28;20053;-75
2023/03/07 02:07:01;;;;;;;6.40;2.60;;;;;;;3.58;100.00;99782.03;5074210;28;20041;-75
2023/03/07 02:09:30;;;;;;;7.95;2.33;;;;;;;3.56;100.00;99787.72;5072244;28;20048;-75
2023/03/07 02:11:59;;;;;;;7.78;2.60;;;;;;;3.55;100.00;99780.22;5071902;28;20079;-76
2023/03/07 02:14:26;;;;;;;3.67;2.15;;;;;;;3.54;100.00;99784.75;5071935;28;20524;-75
2023/03/07 02:16:53;;;;;;;4.78;2.40;;;;;;;3.52;100.00;99779.16;5072285;28;20049;-75
2023/03/07 02:20:01;;;;;;;6.90;1.98;;;;;;;3.52;100.00;99775.78;5071894;28;20503;-75
2023/03/07 02:22:28;;;;;;;2.40;2.20;;;;;;;3.50;100.00;99770.19;5072259;28;20044;-76
2023/03/07 02:25:04;;;;;;;3.55;2.40;;;;;;;3.50;100.00;99773.56;5072186;28;20532;-75
2023/03/07 02:27:35;;;;;;;5.40;2.03;;;;;;;3.50;100.00;99768.31;5070420;28;20052;-75
2023/03/07 02:30:04;;;;;;;5.82;2.20;;;;;;;3.50;100.00;99760.41;5071866;28;20133;-75
2023/03/07 02:32:30;;;;;;;3.35;2.33;;;;;;;3.49;100.00;99756.31;5071805;28;20150;-75
2023/03/07 02:34:57;;;;;;;5.10;2.03;;;;;;;3.48;100.00;99754.81;5071717;28;20546;-76
2023/03/07 02:37:30;;;;;;;6.00;2.50;;;;;;;3.47;100.00;99755.97;5071589;28;20049;-75
2023/03/07 02:40:00;;;;;;;6.10;2.10;;;;;;;3.45;100.00;99745.13;5054651;28;20057;-75
2023/03/07 02:42:31;;;;;;;5.45;2.03;;;;;;;3.45;100.00;99739.13;5071635;28;20079;-76
2023/03/07 02:45:09;;;;;;;11.32;2.53;;;;;;;3.42;100.00;99738.06;5071386;28;20049;-76
2023/03/07 02:47:37;;;;;;;3.60;1.95;;;;;;;3.43;100.00;99750.06;5071847;28;20103;-75
2023/03/07 02:50:05;;;;;;;4.97;2.10;;;;;;;3.43;100.00;99757.94;5071855;28;20049;-75
2023/03/07 02:52:32;;;;;;;6.68;2.00;;;;;;;3.42;100.00;99755.72;5071449;28;20056;-76
2023/03/07 02:54:59;;;;;;;5.65;2.25;;;;;;;3.43;100.00;99749.31;5071420;28;20048;-75
2023/03/07 02:57:30;;;;;;;11.50;2.50;;;;;;;3.41;100.00;99747.09;5071436;28;20049;-76
2023/03/07 02:59:58;;;;;;;3.88;2.08;;;;;;;3.42;100.00;99748.56;5073266;28;20037;-76
2023/03/07 03:02:25;;;;;;;8.88;2.28;;;;;;;3.41;100.00;99752.34;5072605;28;20139;-75
2023/03/07 03:04:52;;;;;;;8.23;2.58;;;;;;;3.41;100.00;99746.34;5072694;28;20060;-76
2023/03/07 03:07:21;;;;;;;7.70;2.20;;;;;;;3.42;100.00;99750.47;5070991;28;20045;-76
2023/03/07 03:09:48;;;;;;;7.72;2.60;;;;;;;3.41;100.00;99744.47;5072624;28;20048;-75
2023/03/07 03:12:15;;;;;;;5.07;1.98;;;;;;;3.41;100.00;99749.72;5070801;28;20049;-75
2023/03/07 03:14:41;;;;;;;3.97;2.58;;;;;;;3.41;100.00;99738.47;5072750;28;20107;-76
2023/03/07 03:17:09;;;;;;;3.70;2.20;;;;;;;3.40;100.00;99737.72;5053948;28;20045;-76
2023/03/07 03:19:36;;;;;;;6.82;1.98;;;;;;;3.41;100.00;99746.34;5071417;28;20049;-75
2023/03/07 03:22:03;;;;;;;6.72;1.80;;;;;;;3.41;100.00;99735.84;5072294;28;20111;-76
2023/03/07 03:24:38;;;;;;;7.45;1.90;;;;;;;3.41;100.00;99730.56;5071051;28;20049;-76
2023/03/07 03:27:06;;;;;;;7.45;1.92;;;;;;;3.40;100.00;99727.19;5070923;28;20045;-76
2023/03/07 03:29:32;;;;;;;6.68;1.58;;;;;;;3.41;100.00;99727.94;5072367;28;20486;-76
2023/03/07 03:32:01;;;;;;;5.00;1.88;;;;;;;3.40;100.00;99723.84;5070823;28;20037;-75
2023/03/07 03:34:28;;;;;;;4.63;2.08;;;;;;;3.40;100.00;99727.19;5070390;28;20061;-75
2023/03/07 03:36:55;;;;;;;4.22;1.95;;;;;;;3.41;100.00;99720.03;5072516;28;20422;-75
2023/03/07 03:39:21;;;;;;;3.50;1.90;;;;;;;3.41;100.00;99728.69;5069919;28;20076;-75
2023/03/07 03:41:53;;;;;;;5.97;2.33;;;;;;;3.41;100.00;99720.78;5072661;28;20136;-76
2023/03/07 03:44:21;;;;;;;5.63;2.00;;;;;;;3.41;100.00;99718.16;5070022;28;20049;-75
2023/03/07 03:46:48;;;;;;;4.93;2.10;;;;;;;3.40;100.00;99726.47;5054254;28;20112;-76
2023/03/07 03:49:18;;;;;;;3.38;2.13;;;;;;;3.40;100.00;99721.94;5070419;28;20055;-76
2023/03/07 03:51:48;;;;;;;3.65;2.22;;;;;;;3.40;100.00;99713.31;5070999;28;20135;-75
2023/03/07 03:54:14;;;;;;;14.20;2.90;;;;;;;3.40;100.00;99721.94;5069767;28;20053;-76
2023/03/07 03:56:41;;;;;;;3.28;2.05;;;;;;;3.41;100.00;99718.16;5070611;28;20045;-76
2023/03/07 03:59:08;;;;;;;8.15;2.35;;;;;;;3.41;100.00;99722.69;5070551;28;20045;-75
2023/03/07 04:01:34;;;;;;;4.65;1.70;;;;;;;3.42;100.00;99721.53;5070603;28;20049;-75
2023/03/07 04:04:01;;;;;;;6.38;2.08;;;;;;;3.41;100.00;99723.41;5070100;28;20045;-76
2023/03/07 04:06:31;;;;;;;3.72;2.45;;;;;;;3.40;100.00;99718.56;5071563;28;20579;-75
2023/03/07 04:08:59;;;;;;;9.10;2.22;;;;;;;3.41;100.00;99712.16;5070013;28;20506;-75
2023/03/07 04:11:25;;;;;;;9.43;2.38;;;;;;;3.40;100.00;99715.94;5071228;28;20045;-75
2023/03/07 04:13:52;;;;;;;7.45;2.20;;;;;;;3.40;100.00;99708.78;5071815;28;20049;-75
2023/03/07 04:16:21;;;;;;;6.40;2.05;;;;;;;3.42;100.00;99719.63;5069785;28;20296;-75
2023/03/07 04:18:51;;;;;;;6.15;1.98;;;;;;;3.42;100.00;99701.22;5070468;28;20459;-75
2023/03/07 04:21:18;;;;;;;8.00;2.00;;;;;;;3.43;100.00;99705.31;5069196;28;20106;-75
2023/03/07 04:23:48;;;;;;;6.50;1.98;;;;;;;3.43;100.00;99707.22;5053290;28;20140;-74
2023/03/07 04:26:15;;;;;;;6.72;1.90;;;;;;;3.43;100.00;99697.44;5069733;28;20045;-74
2023/03/07 04:28:45;;;;;;;8.35;1.95;;;;;;;3.43;100.00;99696.69;5071925;28;20037;-74
2023/03/07 04:31:18;;;;;;;7.85;1.98;;;;;;;3.42;100.00;99693.31;5071167;28;20112;-74
2023/03/07 04:33:46;;;;;;;6.78;2.22;;;;;;;3.42;100.00;99687.31;5069736;28;20136;-75
2023/03/07 04:36:17;;;;;;;4.25;1.67;;;;;;;3.41;100.00;99694.47;5069067;28;20045;-75
2023/03/07 04:38:45;;;;;;;3.00;1.95;;;;;;;3.43;100.00;99686.16;5070297;28;20049;-74
2023/03/07 04:41:14;;;;;;;9.02;2.63;;;;;;;3.45;100.00;99689.13;5069084;28;20490;-74
2023/03/07 04:43:41;;;;;;;9.77;2.15;;;;;;;3.44;100.00;99691.03;5071511;28;20556;-74
2023/03/07 04:46:10;;;;;;;7.38;2.00;;;;;;;3.42;100.00;99688.06;5070884;28;20041;-75
2023/03/07 04:48:38;;;;;;;5.65;1.95;;;;;;;3.43;100.00;99692.16;5070233;28;20449;-74
2023/03/07 04:51:05;;;;;;;8.45;2.30;;;;;;;3.43;100.00;99688.81;5071101;28;20204;-75
2023/03/07 04:53:32;;;;;;;5.32;2.10;;;;;;;3.45;100.00;99681.97;5074249;28;20041;-74
2023/03/07 04:56:04;;;;;;;7.38;2.20;;;;;;;3.46;100.00;99693.97;5073339;28;20484;-74
2023/03/07 04:58:32;;;;;;;3.58;1.65;;;;;;;3.46;100.00;99682.72;5073052;28;20115;-74
2023/03/07 05:01:00;;;;;;;3.72;1.63;;;;;;;3.47;100.00;99682.28;5074693;28;20080;-75
2023/03/07 05:03:28;;;;;;;9.18;1.83;;;;;;;3.46;100.00;99675.56;5073063;28;20155;-75
2023/03/07 05:06:01;;;;;;;4.47;1.85;;;;;;;3.46;100.00;99683.44;5072842;28;20049;-74
2023/03/07 05:08:28;;;;;;;5.70;1.88;;;;;;;3.43;100.00;99675.66;5072826;28;20386;-74
2023/03/07 05:10:55;;;;;;;6.53;1.55;;;;;;;3.41;100.00;99688.47;5074380;28;20367;-74
2023/03/07 05:13:23;;;;;;;5.00;1.13;;;;;;;3.35;100.00;99677.72;5072445;28;20099;-75
2023/03/07 05:15:54;;;;;;;1.63;1.08;;;;;;;3.33;100.00;99682.66;5072684;28;20099;-74
2023/03/07 05:18:23;;;;;;;3.13;1.42;;;;;;;3.32;100.00;99679.28;5072268;28;20057;-74
2023/03/07 05:20:50;;;;;;;4.90;1.23;;;;;;;3.31;100.00;99690.22;5072054;28;20560;-75
2023/03/07 05:23:18;;;;;;;3.78;1.10;;;;;;;3.25;100.00;99689.97;5071892;28;20591;-75
2023/03/07 05:25:47;;;;;;;3.65;0.88;;;;;;;3.23;100.00;99691.53;5072863;28;20052;-74
2023/03/07 05:28:15;;;;;;;4.75;1.00;;;;;;;3.19;100.00;99690.94;5072431;28;20045;-74
2023/03/07 05:30:43;;;;;;;2.92;0.75;;;;;;;3.17;100.00;99683.44;5055985;28;20132;-74
2023/03/07 05:33:10;;;;;;;2.95;1.00;;;;;;;3.14;100.00;99683.53;5071874;28;20057;-73
2023/03/07 05:35:38;;;;;;;2.13;0.60;;;;;;;3.09;100.00;99679.50;5072291;28;20049;-74
2023/03/07 05:38:06;;;;;;;6.72;1.08;;;;;;;2.98;100.00;99686.91;5072414;28;20048;-74
2023/03/07 05:40:32;;;;;;;4.55;0.80;;;;;;;2.95;99.96;99688.47;5072523;28;20124;-74
2023/03/07 05:42:59;;;;;;;0.80;0.50;;;;;;;2.93;99.61;99690.03;5073951;28;20446;-75
2023/03/07 05:45:26;;;;;;;0.52;0.40;;;;;;;2.85;98.95;99694.72;5072198;28;20421;-75
2023/03/07 05:47:53;;;;;;;2.35;0.90;;;;;;;2.80;98.38;99700.47;5072268;28;20136;-75
2023/03/07 05:50:20;;;;;;;1.58;0.60;;;;;;;2.74;98.19;99711.91;5073267;28;20146;-74
2023/03/07 05:52:47;;;;;;;1.38;0.30;;;;;;;2.64;97.60;99708.34;5072273;28;20537;-74
2023/03/07 05:55:14;;;;;;;3.60;0.65;;;;;;;2.60;97.18;99705.81;5071864;28;20084;-75
2023/03/07 05:57:42;;;;;;;2.50;0.50;;;;;;;2.56;96.97;99712.28;5071947;28;20041;-74
2023/03/07 06:00:10;;;;;;;1.65;0.82;;;;;;;2.49;97.46;99709.81;5071807;28;20095;-75
2023/03/07 06:02:40;;;;;;;1.38;0.40;;;;;;;2.47;97.56;99706.84;5069659;28;20045;-75
2023/03/07 06:05:10;;;;;;;0.60;0.60;;;;;;;2.47;97.95;99706.84;5071854;28;20049;-74
2023/03/07 06:07:37;;;;;;;3.65;0.57;;;;;;;2.47;98.00;99706.84;5073706;28;20045;-75
2023/03/07 06:10:04;;;;;;;2.28;0.63;;;;;;;2.43;98.06;99703.56;5071745;28;20072;-75
2023/03/07 06:12:30;;;;;;;0.77;0.50;;;;;;;2.36;98.33;99709.72;5071852;28;20045;-74
2023/03/07 06:14:57;;;;;;;2.03;0.70;;;;;;;2.26;98.69;99715.94;5073626;28;20445;-76
2023/03/07 06:17:24;;;;;;;6.13;0.70;;;;;;;2.24;98.74;99707.72;5072880;28;20033;-76
2023/03/07 06:19:52;;;;;;;2.17;0.40;;;;;;;2.21;98.72;99708.53;5073798;28;20047;-76
2023/03/07 06:22:18;;;;;;;2.70;0.60;;;;;;;2.18;98.88;99712.72;5071555;28;20057;-75
2023/03/07 06:24:45;;;;;;;0.98;0.50;;;;;;;2.15;99.31;99715.41;5071991;28;20462;-76
2023/03/07 06:27:12;;;;;;;1.35;0.43;;;;;;;2.14;99.23;99725.16;5073274;28;20048;-76
2023/03/07 06:29:39;;;;;;;1.27;0.35;;;;;;;2.09;99.32;99720.38;5072585;28;20053;-75
2023/03/07 06:32:06;;;;;;;2.70;0.70;;;;;;;1.98;99.00;99733.00;5072866;28;20045;-76
2023/03/07 06:34:32;;;;;;;1.52;0.50;;;;;;;1.92;99.32;99721.50;5072611;28;20057;-76
2023/03/07 06:36:59;;;;;;;0.93;0.70;;;;;;;1.92;99.42;99711.75;5071872;28;20170;-75
2023/03/07 06:39:27;;;;;;;2.53;0.73;;;;;;;1.91;99.41;99715.50;5071165;28;20566;-76
2023/03/07 06:41:58;;;;;;;1.80;0.83;;;;;;;1.91;99.52;99718.13;5071743;28;20403;-75
2023/03/07 06:44:24;;;;;;;3.08;0.80;;;;;;;1.85;99.59;99722.38;5070823;28;20276;-76
2023/03/07 06:46:51;;;;;;;3.30;1.10;;;;;;;1.84;99.73;99728.75;5071055;28;20045;-76
2023/03/07 06:49:20;;;;;;;1.30;0.70;;;;;;;1.84;99.93;99728.75;5071097;28;20052;-75
2023/03/07 06:51:47;;;;;;;5.82;0.82;;;;;;;1.83;99.85;99724.66;5072800;28;20041;-76
2023/03/07 06:54:15;;;;;;;3.25;0.65;;;;;;;1.84;100.00;99735.91;5070791;28;20045;-76
2023/03/07 06:56:42;;;;;;;3.08;0.77;;;;;;;1.82;99.94;99731.03;5071388;28;20049;-76
2023/03/07 06:59:13;;;;;;;2.88;0.70;;;;;;;1.80;100.00;99738.59;5070922;28;20040;-76
2023/03/07 07:01:40;;;;;;;2.50;1.30;;;;;;;1.81;100.00;99736.69;5070770;28;20049;-76
2023/03/07 07:04:08;;;;;;;5.22;0.90;;;;;;;1.75;100.00;99738.31;5071027;28;20517;-76
2023/03/07 07:06:35;;;;;;;2.35;1.23;;;;;;;1.75;100.00;99739.03;5071510;28;20056;-77
2023/03/07 07:09:03;;;;;;;1.63;1.10;;;;;;;1.77;100.00;99733.41;5054132;28;20049;-76
2023/03/07 07:11:33;;;;;;;2.25;1.10;;;;;;;1.78;100.00;99740.88;5071119;28;20172;-76
2023/03/07 07:14:01;;;;;;;4.93;1.10;;;;;;;1.78;100.00;99745.38;5053741;28;20052;-76
2023/03/07 07:16:28;;;;;;;1.30;1.20;;;;;;;1.76;100.00;99735.28;5070624;28;20707;-77
2023/03/07 07:18:55;;;;;;;1.70;1.17;;;;;;;1.76;100.00;99734.53;5070773;28;20477;-76
2023/03/07 07:21:22;;;;;;;3.33;1.40;;;;;;;1.76;100.00;99724.03;5070333;28;20053;-77
2023/03/07 07:23:48;;;;;;;1.02;0.90;;;;;;;1.75;100.00;99722.56;5071717;28;20540;-76
2023/03/07 07:26:15;;;;;;;2.28;1.25;;;;;;;1.72;100.00;99721.47;5054694;28;20580;-75
2023/03/07 07:28:42;;;;;;;2.67;1.20;;;;;;;1.69;100.00;99719.66;5073138;28;20048;-77
2023/03/07 07:31:10;;;;;;;2.45;1.08;;;;;;;1.67;100.00;99720.06;5070749;28;20053;-76
2023/03/07 07:33:37;;;;;;;1.80;1.60;;;;;;;1.67;100.00;99722.69;5070314;28;20084;-76
2023/03/07 07:36:06;;;;;;;2.35;1.38;;;;;;;1.66;100.00;99729.06;5069716;28;20840;-74
2023/03/07 07:38:35;;;;;;;1.60;1.50;;;;;;;1.66;100.00;99725.72;5069507;28;20041;-74
2023/03/07 07:41:01;;;;;;;1.63;1.30;;;;;;;1.67;100.00;99727.19;5071067;28;20060;-77
2023/03/07 07:43:28;;;;;;;2.40;1.70;;;;;;;1.66;100.00;99720.47;5054713;28;20658;-78
2023/03/07 07:46:23;;;;;;;2.60;1.75;;;;;;;1.69;100.00;99719.66;5070748;28;20593;-76
2023/03/07 07:48:50;;;;;;;1.77;1.67;;;;;;;1.68;100.00;99729.41;5071502;28;20045;-76
2023/03/07 07:51:17;;;;;;;1.90;1.80;;;;;;;1.67;100.00;99727.94;5070889;28;20048;-78
2023/03/07 07:53:45;;;;;;;1.85;1.75;;;;;;;1.68;100.00;99733.94;5071369;28;20494;-78
2023/03/07 07:56:12;;;;;;;4.90;2.08;;;;;;;1.65;100.00;99735.47;5071116;28;20045;-79
2023/03/07 07:58:39;;;;;;;1.73;1.60;;;;;;;1.64;100.00;99736.59;5071338;28;20045;-77
2023/03/07 08:01:17;;;;;;;3.08;2.03;;;;;;;1.66;100.00;99738.84;5070764;28;20049;-78
2023/03/07 08:03:44;;;;;;;2.30;1.70;;;;;;;1.67;100.00;99742.94;5072871;28;20531;-77
2023/03/07 08:06:11;;;;;;;1.92;1.83;;;;;;;1.70;100.00;99744.03;5070981;28;20048;-78
2023/03/07 08:08:38;;;;;;;2.47;2.08;;;;;;;1.74;100.00;99748.06;5071202;28;20049;-74
2023/03/07 08:11:06;;;;;;;2.55;2.30;;;;;;;1.71;100.00;99746.25;5071375;28;20052;-74
2023/03/07 08:13:32;;;;;;;2.00;1.83;;;;;;;1.74;100.00;99758.56;5071603;28;20122;-75
2023/03/07 08:15:59;;;;;;;4.47;2.00;;;;;;;1.75;100.00;99744.28;5072770;28;20045;-76
2023/03/07 08:18:25;;;;;;;4.30;2.60;;;;;;;1.78;100.00;99755.88;5072416;28;20131;-76
2023/03/07 08:20:52;;;;;;;2.13;1.95;;;;;;;1.76;100.00;99755.53;5072523;28;20056;-75
2023/03/07 08:23:18;;;;;;;2.20;2.10;;;;;;;1.77;100.00;99757.00;5072329;28;20494;-76
2023/03/07 08:25:45;;;;;;;4.25;2.40;;;;;;;1.81;100.00;99753.19;5074252;28;20041;-76
2023/03/07 08:28:11;;;;;;;2.03;1.92;;;;;;;1.86;100.00;99757.97;5075223;28;20075;-74
2023/03/07 08:30:38;;;;;;;2.63;2.15;;;;;;;1.86;100.00;99759.84;5076300;28;20049;-75
2023/03/07 08:33:05;;;;;;;3.88;1.90;;;;;;;1.90;100.00;99755.28;5075885;28;20049;-78
2023/03/07 08:35:31;;;;;;;1.90;1.75;;;;;;;1.91;100.00;99756.75;5076252;28;20486;-77
2023/03/07 08:37:59;;;;;;;3.08;1.88;;;;;;;1.89;100.00;99759.06;5075842;28;20076;-77
2023/03/07 08:40:29;;;;;;;3.78;2.28;;;;;;;1.90;100.00;99756.03;5075624;28;20051;-76
2023/03/07 08:42:58;;;;;;;2.60;1.90;;;;;;;1.91;100.00;99754.88;5075681;28;20052;-76
2023/03/07 08:45:25;;;;;;;2.28;2.08;;;;;;;1.96;100.00;99756.28;5075599;28;20045;-78
2023/03/07 08:47:52;;;;;;;2.30;2.10;;;;;;;1.99;100.00;99758.13;5074719;28;20039;-78
2023/03/07 08:50:20;;;;;;;3.58;2.15;;;;;;;2.04;100.00;99756.88;5075811;28;20575;-81
2023/03/07 08:52:47;;;;;;;2.10;1.95;;;;;;;2.06;100.00;99757.22;5073156;28;20055;-83
2023/03/07 08:55:15;;;;;;;2.45;2.25;;;;;;;2.07;100.00;99750.81;5075487;28;20099;-79
2023/03/07 08:57:44;;;;;;;2.47;2.13;;;;;;;2.12;100.00;99758.22;5075042;28;20094;-79
2023/03/07 09:00:11;;;;;;;2.60;2.40;;;;;;;2.15;100.00;99750.28;5073789;28;20049;-76
2023/03/07 09:02:38;;;;;;;2.63;2.42;;;;;;;2.25;100.00;99764.34;5075319;28;20049;-80
2023/03/07 09:05:05;;;;;;;3.85;2.33;;;;;;;2.25;100.00;99759.09;5075254;28;20047;-77
2023/03/07 09:07:31;;;;;;;4.72;2.63;;;;;;;2.27;100.00;99754.94;5074974;28;20541;-76
2023/03/07 09:09:58;;;;;;;2.53;2.33;;;;;;;2.24;100.00;99760.25;5075352;28;20045;-75
2023/03/07 09:12:24;;;;;;;2.58;2.35;;;;;;;2.26;100.00;99758.69;5074565;28;20697;-77
2023/03/07 09:14:54;;;;;;;2.47;2.28;;;;;;;2.27;100.00;99760.19;5074954;28;20106;-78
2023/03/07 09:17:20;;;;;;;3.10;2.47;;;;;;;2.30;100.00;99759.38;5074655;28;20049;-78
2023/03/07 09:19:48;;;;;;;2.70;2.28;;;;;;;2.29;100.00;99757.88;5074980;28;20507;-78
2023/03/07 09:22:14;;;;;;;3.38;2.17;;;;;;;2.31;100.00;99752.97;5074825;28;20458;-77
2023/03/07 09:24:41;;;;;;;2.95;2.17;;;;;;;2.28;100.00;99753.78;5074898;28;20457;-76
2023/03/07 09:27:07;;;;;;;2.55;2.08;;;;;;;2.31;100.00;99752.97;5072898;28;20158;-79
2023/03/07 09:29:34;;;;;;;3.25;2.30;;;;;;;2.40;100.00;99754.31;5074636;28;20457;-78
2023/03/07 09:32:04;;;;;;;2.30;2.20;;;;;;;2.50;100.00;99748.81;5074966;28;20037;-78
2023/03/07 09:34:30;;;;;;;4.50;2.47;;;;;;;2.58;100.00;99754.66;5074307;28;20084;-79
2023/03/07 09:36:57;;;;;;;3.03;2.13;;;;;;;2.59;100.00;99753.50;5074511;28;20041;-75
2023/03/07 09:39:24;;;;;;;2.40;2.20;;;;;;;2.67;100.00;99762.72;5074689;28;20049;-76
2023/03/07 09:41:57;;;;;;;4.57;2.03;;;;;;;2.75;100.00;99758.81;5074254;28;20044;-76
2023/03/07 09:44:35;;;;;;;2.72;1.77;;;;;;;2.75;100.00;99761.44;5090761;28;20056;-75
2023/03/07 09:48:06;;;;;;;3.75;2.00;;;;;;;2.78;100.00;99757.25;5093277;28;20436;-75
2023/03/07 09:50:55;;;;;;;3.40;1.90;;;;;;;2.86;100.00;99753.28;5093176;28;20053;-75
2023/03/07 09:54:03;;;;;;;2.83;1.90;;;;;;;2.81;100.00;99764.28;5094180;28;20036;-76
2023/03/07 09:56:51;;;;;;;5.90;1.70;;;;;;;2.91;100.00;99760.69;5091013;28;20056;-76
2023/03/07 09:59:42;;;;;;;1.77;1.60;;;;;;;2.92;100.00;99755.03;5093986;28;20507;-76
2023/03/07 10:02:20;;;;;;;2.35;1.83;;;;;;;2.97;100.00;99757.16;5094788;28;20123;-76
2023/03/07 10:05:16;;;;;;;3.13;1.88;;;;;;;3.06;100.00;99758.47;5087286;28;20037;-76
2023/03/07 10:07:42;;;;;;;1.70;1.60;;;;;;;3.05;100.00;99746.47;5073016;28;20494;-76
2023/03/07 10:10:24;;;;;;;2.40;2.00;;;;;;;3.07;100.00;99752.06;5073569;28;20052;-76
2023/03/07 10:13:02;;;;;;;5.20;2.03;;;;;;;3.13;100.00;99755.69;5072487;28;20502;-76
2023/03/07 10:15:37;;;;;;;2.45;1.85;;;;;;;3.16;100.00;99763.50;5074251;28;20048;-76
2023/03/07 10:18:14;;;;;;;2.95;1.60;;;;;;;3.19;100.00;99759.31;5074626;28;20466;-76
2023/03/07 10:21:03;;;;;;;3.47;2.13;;;;;;;3.26;100.00;99757.22;5074315;28;20048;-76
2023/03/07 10:23:42;;;;;;;2.75;1.50;;;;;;;3.21;100.00;99759.59;5074197;28;20494;-76
2023/03/07 10:26:21;;;;;;;4.45;1.60;;;;;;;3.19;100.00;99759.31;5074268;28;20570;-76
2023/03/07 10:28:47;;;;;;;2.10;1.60;;;;;;;3.20;100.00;99763.41;5084493;28;20075;-76
2023/03/07 10:31:24;;;;;;;3.60;1.90;;;;;;;3.20;100.00;99766.75;5094661;28;20182;-75
2023/03/07 10:33:52;;;;;;;1.73;1.63;;;;;;;3.16;100.00;99762.75;5094405;28;20418;-75
2023/03/07 10:36:42;;;;;;;4.78;1.88;;;;;;;3.03;100.00;99767.94;5094438;28;20040;-76
2023/03/07 10:39:23;;;;;;;2.90;1.50;;;;;;;2.94;100.00;99773.75;5093650;28;20083;-76
2023/03/07 10:41:50;;;;;;;3.42;1.70;;;;;;;3.00;100.00;99772.13;5092929;28;20048;-76
2023/03/07 10:44:19;;;;;;;4.03;1.48;;;;;;;3.09;100.00;99770.81;5093569;28;20059;-75
2023/03/07 10:46:50;;;;;;;5.00;1.85;;;;;;;3.17;100.00;99777.38;5093701;28;20064;-76
2023/03/07 10:49:42;;;;;;;2.17;1.48;;;;;;;3.33;100.00;99769.47;5091107;28;20049;-76
2023/03/07 10:52:21;;;;;;;2.00;1.30;;;;;;;3.39;100.00;99772.34;5093837;28;20055;-77
2023/03/07 10:54:48;;;;;;;1.40;1.30;;;;;;;3.41;100.00;99770.03;5092884;28;20505;-79
2023/03/07 10:57:17;;;;;;;1.10;1.10;;;;;;;3.51;99.87;99776.94;5094174;28;20460;-79
2023/03/07 10:59:48;;;;;;;2.35;1.10;;;;;;;3.62;99.31;99783.38;5093665;28;20088;-79
2023/03/07 11:02:33;;;;;;;4.32;1.50;;;;;;;3.73;98.50;99779.75;5092977;28;20048;-77
2023/03/07 11:05:00;;;;;;;3.55;1.08;;;;;;;3.79;98.47;99776.22;5093257;28;20052;-78
2023/03/07 11:07:31;;;;;;;3.92;1.23;;;;;;;3.91;98.31;99769.50;5095034;28;20132;-78
2023/03/07 11:09:59;;;;;;;1.67;1.17;;;;;;;3.96;98.19;99776.91;5093692;28;20045;-77
2023/03/07 11:12:28;;;;;;;2.45;1.30;;;;;;;3.99;97.30;99771.53;5093167;28;20048;-78
2023/03/07 11:15:17;;;;;;;2.92;1.25;;;;;;;3.96;97.57;99780.28;5093289;28;20130;-78
2023/03/07 11:17:46;;;;;;;8.38;1.20;;;;;;;3.91;97.56;99777.41;5093961;28;20048;-79
2023/03/07 11:20:45;;;;;;;2.22;1.20;;;;;;;3.77;97.58;99783.03;5093228;28;20033;-77
2023/03/07 11:23:13;;;;;;;0.98;0.95;;;;;;;3.62;97.03;99791.28;5092596;28;20049;-80
2023/03/07 11:25:39;;;;;;;3.10;1.20;;;;;;;3.60;96.20;99792.84;5092339;28;20135;-79
2023/03/07 11:28:28;;;;;;;4.43;1.02;;;;;;;3.51;96.35;99796.09;5077562;28;20045;-79
2023/03/07 11:31:10;;;;;;;1.27;0.63;;;;;;;3.30;95.09;99805.22;5073295;28;20077;-78
2023/03/07 11:33:55;;;;;;;0.90;0.60;;;;;;;3.22;94.63;99796.03;5072844;28;20048;-78
2023/03/07 11:36:29;;;;;;;1.13;0.40;;;;;;;3.22;94.16;99798.66;5072689;28;20049;-78
2023/03/07 11:39:02;;;;;;;3.20;0.67;;;;;;;3.30;93.99;99794.69;5072953;28;20049;-74
2023/03/07 11:41:54;;;;;;;803.40;310.05;;;;;;;3.43;94.83;99794.03;5071533;28;20520;-77
2023/03/07 11:44:47;;;;;;;72.50;40.95;;;;;;;3.61;95.19;99796.97;5072445;28;20504;-76
2023/03/07 11:47:40;;;;;;;4.28;3.83;;;;;;;3.68;95.10;99804.69;5072642;28;20091;-76
2023/03/07 11:50:19;;;;;;;2.33;1.60;;;;;;;3.79;94.87;99799.91;5072925;28;20098;-77